Time;durP1;ratioP1;P1;durP2;ratioP2;P2;SDS_P1;SDS_P2;PMS_P1;PMS_P2;Temp;Humidity;BMP_temperature;BMP_pressure;BME280_temperature;BME280_humidity;BME280_pressure;Samples;Min_cycle;Max_cycle;Signal;HPM_P1;HPM_P2
2022/11/02 00:02:20;;;;;;;4.67;2.93;;;11.60;91.10;;;;;;5085190;28;20272;-45
2022/11/02 00:04:46;;;;;;;3.10;2.33;;;11.50;91.20;;;;;;5101004;28;20465;-48
2022/11/02 00:07:12;;;;;;;4.30;3.20;;;11.50;91.20;;;;;;5099466;28;20431;-48
2022/11/02 00:09:37;;;;;;;5.47;2.83;;;11.50;91.30;;;;;;5116393;28;20219;-47
2022/11/02 00:12:03;;;;;;;4.07;2.80;;;11.40;91.30;;;;;;5116583;28;20236;-47
2022/11/02 00:14:29;;;;;;;7.67;3.30;;;11.40;91.40;;;;;;5100178;28;20187;-46
2022/11/02 00:16:55;;;;;;;5.43;2.80;;;11.40;91.50;;;;;;5079496;28;20421;-47
2022/11/02 00:19:20;;;;;;;5.57;2.87;;;11.40;91.50;;;;;;5097565;28;20247;-45
2022/11/02 00:21:46;;;;;;;8.40;3.17;;;11.30;91.60;;;;;;5096886;28;20212;-46
2022/11/02 00:24:12;;;;;;;3.33;2.13;;;11.30;91.70;;;;;;5096015;28;20238;-46
2022/11/02 00:26:37;;;;;;;4.07;2.23;;;11.30;91.80;;;;;;5097436;28;20463;-46
2022/11/02 00:29:04;;;;;;;5.23;2.87;;;11.30;91.90;;;;;;5097611;28;20182;-45
2022/11/02 00:31:30;;;;;;;4.00;2.20;;;11.30;92.10;;;;;;5098538;28;20177;-49
2022/11/02 00:33:55;;;;;;;4.10;2.10;;;11.30;92.20;;;;;;5098039;28;20440;-50
2022/11/02 00:36:23;;;;;;;5.00;2.10;;;11.30;92.30;;;;;;5098196;28;20184;-46
2022/11/02 00:38:49;;;;;;;4.50;2.20;;;11.30;92.30;;;;;;5097287;28;20233;-48
2022/11/02 00:41:17;;;;;;;3.20;2.50;;;11.30;92.40;;;;;;5098458;28;20749;-47
2022/11/02 00:43:42;;;;;;;4.43;1.80;;;11.20;92.50;;;;;;5079891;28;20724;-47
2022/11/02 00:46:08;;;;;;;5.70;2.33;;;11.20;92.50;;;;;;5097907;28;20403;-45
2022/11/02 00:48:35;;;;;;;2.83;2.07;;;11.30;92.70;;;;;;5098172;28;20179;-47
2022/11/02 00:51:00;;;;;;;6.33;2.10;;;11.30;92.70;;;;;;5097578;28;20256;-46
2022/11/02 00:53:26;;;;;;;3.60;2.13;;;11.20;92.70;;;;;;5098045;28;20423;-45
2022/11/02 00:55:52;;;;;;;3.57;1.90;;;11.30;92.80;;;;;;5097029;28;20198;-48
2022/11/02 00:58:18;;;;;;;3.67;1.90;;;11.20;92.90;;;;;;5097641;28;20425;-46
2022/11/02 01:00:44;;;;;;;4.37;1.80;;;11.30;93.00;;;;;;5095588;28;20499;-49
2022/11/02 01:03:10;;;;;;;7.50;2.50;;;11.30;93.00;;;;;;5078764;28;20261;-47
2022/11/02 01:05:37;;;;;;;3.67;2.00;;;11.20;93.00;;;;;;5096942;28;20847;-46
2022/11/02 01:08:03;;;;;;;3.37;2.20;;;11.20;93.10;;;;;;5096890;28;20184;-46
2022/11/02 01:10:28;;;;;;;4.17;1.97;;;11.30;93.20;;;;;;5097376;28;20431;-46
2022/11/02 01:12:54;;;;;;;3.47;2.10;;;11.20;93.20;;;;;;5097331;28;20759;-47
2022/11/02 01:15:20;;;;;;;3.30;1.67;;;11.20;93.30;;;;;;5097937;28;20187;-47
2022/11/02 01:17:46;;;;;;;4.60;2.10;;;11.30;93.40;;;;;;5098131;28;20252;-48
2022/11/02 01:20:11;;;;;;;3.30;1.70;;;11.20;93.40;;;;;;5096949;28;20319;-46
2022/11/02 01:22:37;;;;;;;3.77;1.90;;;11.20;93.40;;;;;;5097542;28;20413;-44
2022/11/02 01:25:03;;;;;;;4.00;2.07;;;11.20;93.40;;;;;;5097632;28;20276;-46
2022/11/02 01:27:29;;;;;;;3.37;1.80;;;11.20;93.50;;;;;;5080117;28;20201;-46
2022/11/02 01:29:54;;;;;;;4.40;1.77;;;11.20;93.60;;;;;;5097768;28;20587;-45
2022/11/02 01:32:20;;;;;;;3.57;2.30;;;11.20;93.60;;;;;;5098031;28;20197;-45
2022/11/02 01:34:46;;;;;;;4.73;1.70;;;11.30;93.80;;;;;;5097705;28;20171;-46
2022/11/02 01:37:11;;;;;;;2.63;1.43;;;11.30;93.80;;;;;;5080361;28;20196;-47
2022/11/02 01:39:37;;;;;;;3.60;2.60;;;11.30;93.80;;;;;;5097808;28;20176;-46
2022/11/02 01:42:03;;;;;;;3.23;2.10;;;11.30;93.90;;;;;;5097601;28;20192;-46
2022/11/02 01:44:31;;;;;;;4.93;2.67;;;11.30;93.90;;;;;;5097740;28;20554;-47
2022/11/02 01:47:22;;;;;;;2.20;1.87;;;11.30;94.00;;;;;;5096729;28;20188;-46
2022/11/02 01:49:52;;;;;;;6.20;2.87;;;11.30;94.10;;;;;;5086411;28;20457;-48
2022/11/02 01:52:37;;;;;;;4.13;2.13;;;11.30;94.20;;;;;;5097727;28;20431;-47
2022/11/02 01:55:12;;;;;;;3.50;2.00;;;11.30;94.30;;;;;;5097243;28;20708;-48
2022/11/02 01:57:40;;;;;;;4.30;2.00;;;11.30;94.40;;;;;;5097370;28;20498;-45
2022/11/02 02:00:08;;;;;;;3.90;2.47;;;11.30;94.40;;;;;;5079696;28;20472;-47
2022/11/02 02:02:56;;;;;;;7.00;2.17;;;11.30;94.40;;;;;;5097333;28;20443;-48
2022/11/02 02:05:23;;;;;;;5.13;2.80;;;11.30;94.50;;;;;;5095386;28;20435;-48
2022/11/02 02:07:49;;;;;;;3.13;2.27;;;11.30;94.50;;;;;;5097717;28;20484;-47
2022/11/02 02:10:15;;;;;;;3.90;2.70;;;11.30;94.50;;;;;;5096033;28;20430;-46
2022/11/02 02:12:41;;;;;;;3.17;2.80;;;11.30;94.60;;;;;;5078964;28;20426;-47
2022/11/02 02:15:08;;;;;;;5.67;2.53;;;11.40;94.60;;;;;;5096574;28;20184;-46
2022/11/02 02:17:41;;;;;;;3.60;2.17;;;11.40;94.70;;;;;;5096738;28;20449;-47
2022/11/02 02:20:32;;;;;;;4.63;2.10;;;11.40;94.70;;;;;;5079637;28;20507;-47
2022/11/02 02:23:32;;;;;;;4.33;2.37;;;11.40;94.70;;;;;;5097355;28;20470;-48
2022/11/02 02:26:22;;;;;;;4.23;2.30;;;11.40;94.70;;;;;;5079825;28;20432;-46
2022/11/02 02:28:53;;;;;;;3.70;2.30;;;11.40;94.70;;;;;;5094126;28;20506;-47
2022/11/02 02:31:29;;;;;;;3.63;2.10;;;11.40;94.80;;;;;;5075932;28;20882;-47
2022/11/02 02:34:10;;;;;;;3.20;2.27;;;11.40;94.80;;;;;;5074921;28;20494;-48
2022/11/02 02:36:50;;;;;;;2.43;1.90;;;11.40;94.80;;;;;;5058424;28;20412;-45
2022/11/02 02:39:40;;;;;;;2.00;1.57;;;11.40;94.80;;;;;;5079993;28;20803;-47
2022/11/02 02:42:06;;;;;;;5.27;2.10;;;11.40;94.80;;;;;;5062305;28;20776;-46
2022/11/02 02:48:36;;;;;;;4.63;1.90;;;11.40;94.80;;;;;;5078998;28;20631;-49
2022/11/02 02:51:05;;;;;;;4.57;3.03;;;11.40;94.80;;;;;;5058119;28;20954;-48
2022/11/02 02:53:44;;;;;;;3.60;1.90;;;11.40;94.90;;;;;;5062014;28;20407;-45
2022/11/02 02:56:10;;;;;;;6.07;2.67;;;11.40;94.90;;;;;;5061786;28;20476;-47
2022/11/02 02:59:12;;;;;;;3.50;1.90;;;11.40;95.00;;;;;;5061289;28;20841;-45
2022/11/02 03:01:43;;;;;;;5.57;2.50;;;11.40;95.00;;;;;;5029097;28;20795;-47
2022/11/02 03:04:12;;;;;;;3.60;2.30;;;11.40;95.00;;;;;;5062881;28;20428;-45
2022/11/02 03:06:40;;;;;;;5.97;2.63;;;11.40;95.00;;;;;;5079869;28;20419;-47
2022/11/02 03:09:19;;;;;;;3.50;2.13;;;11.40;95.00;;;;;;5063469;28;20821;-48
2022/11/02 03:12:23;;;;;;;3.63;2.10;;;11.40;95.00;;;;;;5080501;28;20503;-45
2022/11/02 03:14:51;;;;;;;3.13;2.30;;;11.40;95.00;;;;;;5079566;28;20422;-45
2022/11/02 03:17:19;;;;;;;5.70;2.47;;;11.40;95.00;;;;;;5080378;28;20416;-47
2022/11/02 03:19:44;;;;;;;3.27;1.87;;;11.40;95.10;;;;;;5062522;28;20426;-47
2022/11/02 03:22:38;;;;;;;7.60;2.20;;;11.40;95.00;;;;;;5079611;28;20421;-48
2022/11/02 03:25:09;;;;;;;4.47;1.70;;;11.40;95.00;;;;;;5070453;28;20194;-49
2022/11/02 03:28:03;;;;;;;4.10;2.83;;;11.40;95.10;;;;;;5062305;28;20433;-47
2022/11/02 03:30:32;;;;;;;4.23;1.90;;;11.40;95.10;;;;;;5062223;28;20436;-45
2022/11/02 03:33:13;;;;;;;4.33;2.23;;;11.40;95.10;;;;;;5061308;28;20719;-50
2022/11/02 03:36:06;;;;;;;4.17;2.23;;;11.50;95.20;;;;;;5079872;28;20429;-46
2022/11/02 03:39:07;;;;;;;5.03;1.77;;;11.40;95.20;;;;;;5079666;28;20427;-49
2022/11/02 03:41:34;;;;;;;3.83;2.23;;;11.40;95.20;;;;;;5008465;28;20479;-45
2022/11/02 03:44:04;;;;;;;3.83;2.03;;;11.40;95.30;;;;;;5079443;28;20426;-47
2022/11/02 03:46:32;;;;;;;3.50;1.80;;;11.40;95.30;;;;;;5062198;28;20472;-46
2022/11/02 03:48:59;;;;;;;3.10;1.80;;;11.40;95.30;;;;;;5078251;28;20535;-45
2022/11/02 03:51:26;;;;;;;4.67;2.10;;;11.40;95.30;;;;;;5062090;28;20485;-49
2022/11/02 03:54:12;;;;;;;3.20;1.53;;;11.40;95.20;;;;;;5061689;28;20419;-47
2022/11/02 03:56:44;;;;;;;3.13;1.97;;;11.40;95.10;;;;;;5078742;28;20464;-45
2022/11/02 03:59:10;;;;;;;2.87;1.90;;;11.40;95.10;;;;;;5077989;28;20869;-45
2022/11/02 04:01:41;;;;;;;6.00;1.63;;;11.40;95.00;;;;;;5078088;28;20567;-46
2022/11/02 04:04:07;;;;;;;4.33;1.50;;;11.40;95.00;;;;;;5078818;28;20324;-47
2022/11/02 04:06:33;;;;;;;6.90;2.30;;;11.40;94.90;;;;;;5060866;28;20889;-47
2022/11/02 04:08:59;;;;;;;4.80;2.30;;;11.40;94.90;;;;;;5060838;28;20260;-47
2022/11/02 04:19:26;;;;;;;4.37;2.00;;;11.40;94.80;;;;;;5077910;28;20841;-46
2022/11/02 04:19:38;;;;;;;5.03;2.10;;;11.40;94.70;;;;;;5075684;28;20443;-46
2022/11/02 04:27:33;;;;;;;2.63;2.00;;;11.30;94.70;;;;;;5076302;28;20411;-48
2022/11/02 04:29:58;;;;;;;3.90;1.97;;;11.30;94.70;;;;;;5074881;28;20468;-47
2022/11/02 04:35:09;;;;;;;3.23;1.80;;;11.30;94.70;;;;;;5076109;28;20228;-47
2022/11/02 04:40:23;;;;;;;3.23;1.70;;;11.30;94.70;;;;;;5077329;28;20490;-46
2022/11/02 04:42:49;;;;;;;3.53;1.97;;;11.30;94.70;;;;;;5076575;28;20425;-49
2022/11/02 04:45:15;;;;;;;4.50;2.13;;;11.30;94.70;;;;;;5077479;28;20425;-48
2022/11/02 04:47:40;;;;;;;3.97;2.17;;;11.20;94.60;;;;;;5077062;28;20456;-46
2022/11/02 04:50:06;;;;;;;3.13;2.07;;;11.20;94.60;;;;;;5076817;28;20193;-45
2022/11/02 04:52:32;;;;;;;3.23;2.20;;;11.30;94.70;;;;;;5078141;28;20301;-47
2022/11/02 04:54:57;;;;;;;3.60;1.90;;;11.30;94.70;;;;;;5076911;28;20438;-47
2022/11/02 04:57:23;;;;;;;2.63;2.13;;;11.20;94.60;;;;;;5077292;28;20267;-49
2022/11/02 04:59:49;;;;;;;4.00;2.03;;;11.20;94.60;;;;;;5057668;28;20186;-46
2022/11/02 05:02:15;;;;;;;4.27;1.67;;;11.20;94.60;;;;;;5075878;28;20428;-46
2022/11/02 05:04:40;;;;;;;4.57;2.00;;;11.20;94.60;;;;;;5075298;28;20195;-48
2022/11/02 05:07:07;;;;;;;5.20;2.43;;;11.20;94.60;;;;;;5076113;28;20186;-47
2022/11/02 05:09:33;;;;;;;4.97;1.63;;;11.20;94.60;;;;;;5076014;28;20173;-45
2022/11/02 05:12:00;;;;;;;3.80;2.00;;;11.20;94.60;;;;;;5076180;28;20425;-49
2022/11/02 05:14:26;;;;;;;3.63;1.80;;;11.20;94.60;;;;;;5076048;28;20200;-46
2022/11/02 05:16:51;;;;;;;6.33;2.70;;;11.10;94.50;;;;;;5076023;28;20422;-46
2022/11/02 05:19:17;;;;;;;3.83;2.00;;;11.10;94.50;;;;;;5076532;28;20189;-54
2022/11/02 05:21:44;;;;;;;3.90;1.70;;;11.10;94.50;;;;;;5076135;28;20287;-45
2022/11/02 05:24:10;;;;;;;2.97;1.63;;;11.10;94.50;;;;;;5075278;28;20278;-46
2022/11/02 05:26:35;;;;;;;4.73;1.97;;;11.10;94.50;;;;;;5074505;28;20451;-44
2022/11/02 05:29:01;;;;;;;3.53;1.50;;;11.10;94.60;;;;;;5074345;28;20177;-45
2022/11/02 05:31:27;;;;;;;6.60;2.97;;;11.00;94.50;;;;;;5074759;28;20173;-47
2022/11/02 05:33:52;;;;;;;5.30;2.10;;;11.00;94.60;;;;;;5075984;28;20184;-44
2022/11/02 05:36:18;;;;;;;5.13;1.97;;;11.00;94.60;;;;;;5075377;28;20212;-49
2022/11/02 05:38:44;;;;;;;3.87;1.93;;;11.00;94.60;;;;;;5075388;28;20178;-46
2022/11/02 05:41:09;;;;;;;4.90;2.13;;;11.00;94.60;;;;;;5075914;28;20214;-49
2022/11/02 05:43:35;;;;;;;2.40;1.70;;;11.00;94.70;;;;;;5074746;28;20182;-47
2022/11/02 05:46:02;;;;;;;5.50;2.10;;;11.00;94.70;;;;;;5075783;28;20419;-47
2022/11/02 05:48:30;;;;;;;3.80;1.97;;;11.00;94.70;;;;;;5059732;28;20182;-47
2022/11/02 05:50:58;;;;;;;4.97;1.97;;;10.90;94.70;;;;;;5057240;28;20435;-46
2022/11/02 05:53:24;;;;;;;4.10;2.10;;;11.00;94.70;;;;;;5056507;28;20529;-48
2022/11/02 05:55:50;;;;;;;6.60;2.87;;;10.90;94.70;;;;;;5075124;28;20537;-46
2022/11/02 05:58:16;;;;;;;5.50;1.90;;;10.90;94.70;;;;;;5075211;28;20541;-45
2022/11/02 06:00:41;;;;;;;4.13;1.77;;;10.90;94.70;;;;;;5074325;28;20475;-47
2022/11/02 06:03:07;;;;;;;5.40;2.30;;;10.90;94.70;;;;;;5074756;28;20235;-47
2022/11/02 06:05:33;;;;;;;4.90;2.40;;;10.90;94.80;;;;;;5073691;28;20500;-42
2022/11/02 06:08:00;;;;;;;5.90;3.30;;;11.00;94.90;;;;;;5074443;28;20511;-45
2022/11/02 06:10:27;;;;;;;2.77;1.30;;;10.90;94.80;;;;;;5073582;28;20536;-44
2022/11/02 06:12:54;;;;;;;5.67;2.10;;;10.90;95.00;;;;;;5078790;28;20419;-45
2022/11/02 06:15:20;;;;;;;4.90;2.10;;;10.80;95.10;;;;;;5080256;28;20584;-45
2022/11/02 06:17:46;;;;;;;5.57;2.10;;;10.80;95.30;;;;;;5080049;28;20512;-44
2022/11/02 06:20:11;;;;;;;4.27;1.90;;;10.80;95.50;;;;;;5075897;28;20200;-45
2022/11/02 06:22:41;;;;;;;3.47;1.70;;;10.70;95.70;;;;;;5092513;28;20541;-46
2022/11/02 06:25:07;;;;;;;4.63;1.60;;;10.70;95.80;;;;;;5098671;28;20181;-44
2022/11/02 06:27:33;;;;;;;5.47;1.80;;;10.70;95.90;;;;;;5100439;28;20418;-46
2022/11/02 06:29:59;;;;;;;4.90;2.27;;;10.80;95.90;;;;;;5100334;28;20863;-45
2022/11/02 06:32:24;;;;;;;3.93;1.40;;;10.80;95.90;;;;;;5098757;28;20522;-48
2022/11/02 06:34:50;;;;;;;3.80;2.17;;;10.80;95.90;;;;;;5096128;28;20537;-44
2022/11/02 06:37:16;;;;;;;4.00;1.90;;;10.90;95.90;;;;;;5063478;28;20523;-46
2022/11/02 06:39:41;;;;;;;6.33;2.13;;;11.00;95.90;;;;;;5099715;28;20190;-47
2022/11/02 06:42:07;;;;;;;4.93;2.50;;;11.10;95.80;;;;;;5099104;28;20228;-44
2022/11/02 06:44:33;;;;;;;4.33;1.97;;;11.30;95.80;;;;;;5099054;28;20446;-43
2022/11/02 06:46:58;;;;;;;6.73;2.20;;;11.40;95.70;;;;;;5099861;28;20418;-43
2022/11/02 06:49:24;;;;;;;9.23;2.57;;;11.70;95.60;;;;;;5098522;28;20174;-43
2022/11/02 06:51:50;;;;;;;6.80;2.40;;;11.90;95.30;;;;;;5098297;28;20252;-43
2022/11/02 06:54:16;;;;;;;6.47;2.33;;;12.10;95.20;;;;;;5097446;28;20324;-44
2022/11/02 06:56:41;;;;;;;5.27;2.20;;;12.30;95.00;;;;;;5097835;28;20744;-45
2022/11/02 06:59:07;;;;;;;4.73;1.67;;;12.40;94.80;;;;;;5079641;28;20179;-45
2022/11/02 07:01:33;;;;;;;4.33;1.80;;;12.50;94.60;;;;;;5096054;28;20203;-49
2022/11/02 07:04:00;;;;;;;6.40;2.67;;;12.50;94.60;;;;;;5097436;28;20431;-43
2022/11/02 07:06:25;;;;;;;4.23;1.80;;;12.50;94.60;;;;;;5096600;28;20477;-43
2022/11/02 07:08:51;;;;;;;6.07;1.90;;;12.60;94.70;;;;;;5096776;28;20870;-44
2022/11/02 07:11:17;;;;;;;3.40;1.80;;;12.70;94.70;;;;;;5097564;28;20176;-45
2022/11/02 07:13:43;;;;;;;5.83;1.60;;;12.70;94.50;;;;;;5095196;28;20574;-44
2022/11/02 07:16:08;;;;;;;7.50;2.17;;;12.80;94.40;;;;;;5096491;28;20277;-43
2022/11/02 07:18:34;;;;;;;4.73;1.70;;;12.90;94.30;;;;;;5097832;28;20422;-46
2022/11/02 07:21:01;;;;;;;5.23;1.97;;;13.00;94.30;;;;;;5097172;28;20221;-45
2022/11/02 07:23:27;;;;;;;7.93;2.50;;;13.20;94.30;;;;;;5098067;28;20178;-44
2022/11/02 07:25:52;;;;;;;4.90;1.90;;;13.50;94.20;;;;;;5095970;28;20415;-43
2022/11/02 07:28:18;;;;;;;3.47;2.33;;;13.80;93.80;;;;;;5097280;28;20181;-43
2022/11/02 07:30:44;;;;;;;9.10;2.13;;;14.00;93.10;;;;;;5096367;28;20464;-44
2022/11/02 07:33:10;;;;;;;12.17;2.70;;;14.20;92.70;;;;;;5094459;28;20175;-48
2022/11/02 07:35:35;;;;;;;5.50;2.10;;;14.40;92.30;;;;;;5097773;28;20420;-50
2022/11/02 07:38:06;;;;;;;5.53;2.30;;;14.50;92.00;;;;;;5095580;28;20195;-45
2022/11/02 07:40:34;;;;;;;4.47;2.17;;;14.60;91.80;;;;;;5094478;28;20223;-46
2022/11/02 07:43:00;;;;;;;5.20;2.10;;;14.70;91.60;;;;;;5094450;28;20816;-47
2022/11/02 07:45:26;;;;;;;6.30;2.77;;;14.90;91.40;;;;;;5074181;28;20406;-46
2022/11/02 07:47:52;;;;;;;6.33;2.00;;;15.00;91.20;;;;;;5093445;28;20870;-45
2022/11/02 07:50:20;;;;;;;3.70;2.23;;;15.10;90.80;;;;;;5093553;28;20429;-43
2022/11/02 07:52:50;;;;;;;6.83;2.97;;;15.10;90.80;;;;;;5093367;28;20210;-46
2022/11/02 07:55:18;;;;;;;7.70;2.00;;;15.40;90.80;;;;;;5094955;28;20429;-45
2022/11/02 07:57:58;;;;;;;7.53;1.83;;;15.80;90.60;;;;;;5095162;28;20471;-44
2022/11/02 08:00:31;;;;;;;5.43;2.30;;;16.50;90.20;;;;;;5097312;28;20480;-47
2022/11/02 08:02:57;;;;;;;7.03;1.90;;;17.40;87.90;;;;;;5097548;28;20408;-44
2022/11/02 08:05:24;;;;;;;5.83;1.83;;;18.00;85.30;;;;;;5097018;28;20421;-44
2022/11/02 08:07:57;;;;;;;7.10;1.80;;;18.40;82.90;;;;;;5098086;28;20575;-43
2022/11/02 08:10:23;;;;;;;5.73;3.47;;;18.70;81.60;;;;;;5097567;28;20419;-46
2022/11/02 08:12:48;;;;;;;3.43;1.93;;;19.00;80.80;;;;;;5096894;28;20416;-45
2022/11/02 08:15:14;;;;;;;6.30;2.40;;;19.40;79.50;;;;;;5077484;28;20434;-45
2022/11/02 08:17:40;;;;;;;2.57;1.30;;;19.70;77.80;;;;;;5076776;28;20173;-46
2022/11/02 08:20:06;;;;;;;3.20;1.20;;;19.90;76.30;;;;;;5092728;28;20204;-47
2022/11/02 08:22:36;;;;;;;5.33;1.50;;;20.20;75.20;;;;;;5094013;28;20293;-44
2022/11/02 08:25:02;;;;;;;5.73;2.03;;;20.40;73.50;;;;;;5094345;28;20475;-47
2022/11/02 08:27:28;;;;;;;4.23;1.23;;;20.60;72.60;;;;;;5095211;28;20421;-45
2022/11/02 08:29:53;;;;;;;2.40;1.43;;;20.70;72.10;;;;;;5095564;28;20512;-46
2022/11/02 08:32:19;;;;;;;4.47;1.60;;;20.80;72.40;;;;;;5095666;28;20259;-43
2022/11/02 08:34:45;;;;;;;5.23;1.53;;;21.00;70.70;;;;;;5094731;28;20176;-45
2022/11/02 08:37:11;;;;;;;2.63;1.57;;;21.10;70.00;;;;;;5095262;28;20423;-46
2022/11/02 08:39:36;;;;;;;3.90;1.90;;;21.30;69.40;;;;;;5094219;28;20189;-48
2022/11/02 08:42:02;;;;;;;2.43;1.50;;;21.40;68.70;;;;;;5093559;28;20626;-44
2022/11/02 08:44:28;;;;;;;2.47;1.63;;;21.70;68.10;;;;;;5092776;28;20583;-46
2022/11/02 08:46:54;;;;;;;3.83;2.00;;;21.90;66.70;;;;;;5092154;28;20253;-45
2022/11/02 08:49:20;;;;;;;4.10;1.57;;;21.90;65.40;;;;;;5093641;28;20270;-46
2022/11/02 08:51:46;;;;;;;3.90;1.70;;;22.00;64.90;;;;;;5094832;28;20514;-44
2022/11/02 08:54:12;;;;;;;3.00;1.10;;;22.10;64.20;;;;;;5095072;28;20215;-47
2022/11/02 08:56:37;;;;;;;6.40;1.83;;;22.30;62.80;;;;;;5094366;28;20959;-46
2022/11/02 08:59:03;;;;;;;4.97;2.53;;;22.50;61.20;;;;;;5095039;28;20242;-46
2022/11/02 09:01:29;;;;;;;5.13;2.03;;;22.90;60.10;;;;;;5096458;28;20493;-45
2022/11/02 09:03:55;;;;;;;3.60;1.50;;;23.40;58.30;;;;;;5077803;28;20539;-46
2022/11/02 09:06:20;;;;;;;3.70;2.00;;;23.70;57.60;;;;;;5097083;28;20172;-45
2022/11/02 09:08:46;;;;;;;3.80;1.90;;;23.90;56.40;;;;;;5094293;28;20171;-45
2022/11/02 09:11:12;;;;;;;3.43;1.60;;;23.70;55.50;;;;;;5097361;28;20213;-45
2022/11/02 09:13:38;;;;;;;3.23;1.30;;;23.60;55.70;;;;;;5078132;28;20187;-44
2022/11/02 09:16:03;;;;;;;3.97;1.53;;;23.50;55.50;;;;;;5093665;28;20357;-44
2022/11/02 09:18:29;;;;;;;3.70;1.50;;;23.40;55.40;;;;;;5095567;28;20180;-44
2022/11/02 09:20:55;;;;;;;2.90;1.50;;;23.20;54.90;;;;;;5061015;28;20230;-45
2022/11/02 09:23:21;;;;;;;3.60;1.53;;;23.00;54.90;;;;;;5075744;28;21099;-45
2022/11/02 09:25:48;;;;;;;3.90;1.47;;;22.70;54.80;;;;;;5095123;28;20429;-44
2022/11/02 09:28:14;;;;;;;4.20;1.73;;;22.50;55.00;;;;;;5076184;28;20449;-45
2022/11/02 09:30:40;;;;;;;2.80;1.70;;;22.30;55.20;;;;;;5093483;28;20451;-44
2022/11/02 09:33:06;;;;;;;3.20;1.43;;;22.10;55.40;;;;;;5094774;28;20471;-46
2022/11/02 09:35:37;;;;;;;3.83;1.80;;;22.00;55.50;;;;;;5095194;28;20920;-44
2022/11/02 09:38:03;;;;;;;6.87;2.30;;;21.90;55.50;;;;;;5095175;28;20418;-43
2022/11/02 09:40:42;;;;;;;7.00;3.07;;;21.80;56.30;;;;;;5093688;28;20476;-46
2022/11/02 09:43:13;;;;;;;9.80;3.70;;;21.80;57.10;;;;;;5076010;28;20575;-44
2022/11/02 09:45:55;;;;;;;4.83;2.33;;;21.70;57.80;;;;;;5076938;28;20868;-43
2022/11/02 09:48:44;;;;;;;6.63;3.13;;;21.70;57.70;;;;;;5075008;28;20422;-43
2022/11/02 09:51:30;;;;;;;6.90;2.63;;;21.50;57.70;;;;;;5075198;28;20428;-45
2022/11/02 09:54:29;;;;;;;5.60;2.27;;;21.30;58.10;;;;;;5074872;28;20790;-46
2022/11/02 09:57:04;;;;;;;4.90;2.10;;;21.20;58.40;;;;;;5094449;28;20731;-43
2022/11/02 09:59:29;;;;;;;3.93;2.10;;;21.10;58.80;;;;;;5092887;28;20697;-45
2022/11/02 10:02:23;;;;;;;4.37;2.07;;;21.20;58.80;;;;;;5076371;28;20480;-43
2022/11/02 10:05:03;;;;;;;4.13;2.17;;;21.20;59.00;;;;;;5076840;28;20578;-43
2022/11/02 10:08:02;;;;;;;6.20;2.70;;;21.30;59.00;;;;;;5094043;28;20890;-44
2022/11/02 10:10:57;;;;;;;5.53;1.90;;;21.30;59.00;;;;;;5097188;28;20431;-43
2022/11/02 10:13:37;;;;;;;3.13;2.00;;;21.50;58.80;;;;;;5073605;28;20744;-44
2022/11/02 10:16:08;;;;;;;3.83;2.00;;;21.60;58.60;;;;;;5074133;28;20862;-42
2022/11/02 10:18:34;;;;;;;5.07;2.50;;;21.60;58.20;;;;;;5056713;28;20756;-44
2022/11/02 10:21:08;;;;;;;3.70;2.27;;;21.70;58.00;;;;;;5057169;28;20467;-44
2022/11/02 10:23:39;;;;;;;3.63;1.30;;;21.70;57.90;;;;;;5057671;28;20411;-45
2022/11/02 10:26:05;;;;;;;4.63;2.13;;;21.70;57.50;;;;;;5073929;28;20426;-43
2022/11/02 10:28:33;;;;;;;3.70;1.57;;;21.80;57.20;;;;;;5074644;28;20421;-43
2022/11/02 10:31:00;;;;;;;9.03;2.40;;;21.80;56.40;;;;;;5056144;28;20876;-44
2022/11/02 10:33:27;;;;;;;6.13;2.47;;;21.80;56.20;;;;;;5074154;28;20820;-45
2022/11/02 10:36:35;;;;;;;6.73;2.30;;;22.00;55.90;;;;;;5074855;28;20727;-46
2022/11/02 10:39:03;;;;;;;4.00;2.50;;;22.10;55.50;;;;;;5067431;28;20435;-43
2022/11/02 10:41:51;;;;;;;4.03;1.87;;;22.30;55.50;;;;;;5075651;28;20888;-47
2022/11/02 10:44:37;;;;;;;5.77;2.37;;;22.50;54.80;;;;;;5075652;28;20434;-45
2022/11/02 10:47:19;;;;;;;4.07;2.07;;;22.60;54.30;;;;;;5074532;28;20415;-44
2022/11/02 10:50:06;;;;;;;3.57;1.67;;;22.60;54.50;;;;;;5040488;28;20690;-44
2022/11/02 10:52:37;;;;;;;4.60;1.83;;;22.60;54.40;;;;;;5074711;28;20430;-45
2022/11/02 10:55:04;;;;;;;2.50;1.43;;;22.60;54.20;;;;;;5074305;28;20983;-44
2022/11/02 10:57:31;;;;;;;3.73;2.03;;;22.60;54.30;;;;;;5073008;28;20466;-44
2022/11/02 11:00:23;;;;;;;4.20;2.00;;;22.60;54.50;;;;;;5077215;28;20433;-44
2022/11/02 11:03:05;;;;;;;3.03;1.63;;;22.60;54.30;;;;;;5076959;28;20700;-46
2022/11/02 11:05:32;;;;;;;3.83;1.50;;;22.80;54.30;;;;;;5076981;28;20426;-44
2022/11/02 11:07:59;;;;;;;3.50;1.60;;;23.00;54.00;;;;;;5077290;28;20834;-43
2022/11/02 11:10:26;;;;;;;4.20;2.00;;;23.20;53.60;;;;;;5078886;28;20505;-45
2022/11/02 11:12:53;;;;;;;8.53;2.30;;;23.40;52.70;;;;;;5078825;28;20456;-45
2022/11/02 11:15:22;;;;;;;3.53;1.77;;;23.70;51.90;;;;;;5079719;28;20794;-45
2022/11/02 11:17:48;;;;;;;6.57;2.30;;;24.10;51.00;;;;;;5078307;28;20411;-44
2022/11/02 11:20:41;;;;;;;7.37;2.00;;;24.20;50.60;;;;;;5043868;28;20576;-46
2022/11/02 11:23:09;;;;;;;3.73;1.83;;;24.20;50.30;;;;;;5058117;28;20845;-43
2022/11/02 11:25:34;;;;;;;3.67;1.80;;;24.30;50.20;;;;;;5079144;28;20762;-46
2022/11/02 11:28:01;;;;;;;4.00;1.53;;;24.40;49.80;;;;;;5078444;28;20419;-44
2022/11/02 11:30:30;;;;;;;3.90;2.03;;;24.50;49.70;;;;;;5060308;28;20198;-46
2022/11/02 11:32:57;;;;;;;3.27;1.33;;;25.00;49.60;;;;;;5058885;28;20412;-47
2022/11/02 11:35:37;;;;;;;3.37;1.53;;;25.50;48.40;;;;;;5076388;28;20785;-44
2022/11/02 11:38:06;;;;;;;3.73;1.67;;;26.00;47.40;;;;;;5059470;28;20407;-46
2022/11/02 11:40:36;;;;;;;4.40;1.73;;;26.60;46.30;;;;;;5059536;28;20583;-43
2022/11/02 11:43:04;;;;;;;2.97;1.63;;;27.90;45.10;;;;;;5078414;28;20470;-44
2022/11/02 11:45:31;;;;;;;5.63;1.87;;;29.90;43.20;;;;;;5060567;28;20459;-46
2022/11/02 11:48:18;;;;;;;3.60;1.80;;;32.00;41.10;;;;;;5076069;28;20396;-44
2022/11/02 11:50:48;;;;;;;3.30;2.13;;;34.00;38.00;;;;;;5077279;28;20512;-44
2022/11/02 11:53:26;;;;;;;3.13;1.67;;;35.60;35.10;;;;;;5060147;28;20481;-44
2022/11/02 11:55:52;;;;;;;4.20;1.90;;;36.90;33.40;;;;;;5059727;28;20414;-45
2022/11/02 11:58:23;;;;;;;4.20;2.23;;;38.20;31.10;;;;;;5076707;28;20455;-47
2022/11/02 12:01:16;;;;;;;4.23;1.83;;;38.70;29.60;;;;;;5077519;28;20473;-46
2022/11/02 12:03:56;;;;;;;3.40;1.50;;;39.50;28.80;;;;;;5076642;28;20503;-45
2022/11/02 12:06:21;;;;;;;4.50;1.60;;;39.60;28.70;;;;;;5077891;28;20482;-46
2022/11/02 12:09:02;;;;;;;5.60;2.37;;;39.30;28.40;;;;;;5077591;28;20439;-46
2022/11/02 12:11:31;;;;;;;4.10;1.90;;;39.00;28.00;;;;;;5076550;28;20235;-45
2022/11/02 12:14:13;;;;;;;3.63;1.53;;;39.60;28.10;;;;;;5077309;28;20414;-45
2022/11/02 12:17:00;;;;;;;4.50;2.13;;;39.90;27.50;;;;;;5058742;28;20537;-44
2022/11/02 12:19:47;;;;;;;3.70;1.80;;;39.10;27.40;;;;;;5059220;28;20697;-47
2022/11/02 12:22:33;;;;;;;3.50;1.70;;;38.80;28.10;;;;;;5078398;28;20545;-46
2022/11/02 12:25:26;;;;;;;7.37;2.70;;;39.00;28.40;;;;;;5077600;28;20500;-44
2022/11/02 12:27:57;;;;;;;2.60;1.57;;;39.30;28.50;;;;;;5075874;28;20760;-46
2022/11/02 12:30:24;;;;;;;3.80;2.00;;;40.30;28.10;;;;;;5083649;28;20448;-45
2022/11/02 12:32:57;;;;;;;2.73;1.70;;;40.80;27.80;;;;;;5075887;28;20859;-44
2022/11/02 12:35:41;;;;;;;3.80;1.53;;;41.50;27.70;;;;;;5075141;28;20915;-44
2022/11/02 12:38:27;;;;;;;7.37;5.00;;;41.10;27.40;;;;;;5077728;28;20908;-44
2022/11/02 12:41:10;;;;;;;4.80;4.40;;;40.10;27.40;;;;;;5094532;28;20529;-45
2022/11/02 12:43:39;;;;;;;3.97;3.33;;;40.60;27.40;;;;;;5074995;28;20751;-47
2022/11/02 12:46:27;;;;;;;3.90;2.83;;;41.60;27.30;;;;;;5092517;28;20867;-46
2022/11/02 12:49:14;;;;;;;5.13;3.07;;;42.50;27.00;;;;;;5094099;28;20848;-48
2022/11/02 12:52:15;;;;;;;3.93;2.47;;;42.70;26.60;;;;;;5077497;28;20857;-45
2022/11/02 12:54:46;;;;;;;4.23;2.17;;;43.40;26.00;;;;;;5063537;28;20711;-47
2022/11/02 12:57:15;;;;;;;3.83;2.40;;;44.20;25.60;;;;;;5076357;28;20812;-48
2022/11/02 12:59:43;;;;;;;3.23;2.00;;;44.70;25.60;;;;;;5078079;28;20422;-47
2022/11/02 13:02:18;;;;;;;4.00;1.90;;;45.50;25.40;;;;;;5096532;28;20455;-47
2022/11/02 13:04:55;;;;;;;3.47;2.23;;;45.70;25.00;;;;;;5077404;28;20411;-45
2022/11/02 13:07:36;;;;;;;6.00;2.03;;;46.10;24.80;;;;;;5079232;28;20496;-48
2022/11/02 13:10:26;;;;;;;2.80;1.80;;;46.50;23.70;;;;;;5078446;28;20435;-47
2022/11/02 13:12:55;;;;;;;4.10;2.10;;;46.20;24.10;;;;;;5096315;28;20415;-44
2022/11/02 13:15:23;;;;;;;4.07;2.20;;;45.90;24.00;;;;;;5077447;28;20431;-45
2022/11/02 13:17:53;;;;;;;3.60;2.27;;;46.10;24.00;;;;;;5096506;28;20412;-47
2022/11/02 13:20:22;;;;;;;2.30;1.50;;;46.00;23.50;;;;;;5097042;28;20459;-47
2022/11/02 13:22:55;;;;;;;3.83;2.00;;;45.90;23.80;;;;;;5091184;28;20782;-45
2022/11/02 13:25:28;;;;;;;4.17;2.37;;;46.00;23.80;;;;;;5077300;28;20430;-46
2022/11/02 13:28:00;;;;;;;3.50;1.90;;;46.20;23.70;;;;;;5096046;28;20437;-45